Uega, Russia
Current Conditions -  °F | °C
As of 10:00 PM on Sunday 25 Jan 2015 (Local Time) from UHMM Reporting Station
Scattered Clouds Scattered Clouds  
Wind Chill: -18°   Ceiling: Unl
Heat Index: -18°   Visibility: 6mi
Dew Point: -24°   Wind: 0mph
Humidity: 76%   Direction: NA
Pressure: 29.88"   Gusts: NA
Location:  60.73°N, 142.75°E
Report Text: UHMM 251200Z 00000MPS 9999 SCT100 M28/M31 Q1012 RMK QFE744
Loading
Personal Weather Stations






























Interactive Weather Map New forecast layout! Learn more

10-Day Weather Forecast

Advertisements
Track Severe Weather on mobile